createdAt,value
2022-10-24T00:01:37.248Z,11.40
2022-10-24T00:06:33.424Z,11.20
2022-10-24T00:09:01.328Z,11.30
2022-10-24T00:11:29.773Z,11.20
2022-10-24T00:13:59.586Z,12.03
2022-10-24T00:16:29.313Z,10.83
2022-10-24T00:18:57.250Z,11.07
2022-10-24T00:21:25.153Z,9.80
2022-10-24T00:23:53.237Z,9.47
2022-10-24T00:26:21.041Z,9.10
2022-10-24T00:28:49.170Z,9.70
2022-10-24T00:31:19.367Z,9.53
2022-10-24T00:33:49.068Z,11.37
2022-10-24T00:36:20.283Z,10.50
2022-10-24T00:38:49.022Z,12.00
2022-10-24T00:41:19.560Z,11.73
2022-10-24T00:43:48.091Z,11.27
2022-10-24T00:46:17.709Z,10.00
2022-10-24T00:48:49.750Z,10.43
2022-10-24T00:51:24.440Z,9.83
2022-10-24T00:53:55.112Z,9.53
2022-10-24T00:56:26.234Z,10.23
2022-10-24T00:58:55.694Z,8.77
2022-10-24T01:01:25.469Z,9.43
2022-10-24T01:03:54.706Z,9.37
2022-10-24T01:06:35.503Z,9.60
2022-10-24T01:09:13.119Z,8.90
2022-10-24T01:11:55.014Z,9.30
2022-10-24T01:14:38.009Z,9.77
2022-10-24T01:17:10.349Z,10.50
2022-10-24T01:20:08.270Z,8.97
2022-10-24T01:22:47.236Z,8.60
2022-10-24T01:25:18.724Z,9.10
2022-10-24T01:28:02.847Z,9.27
2022-10-24T01:30:40.065Z,8.63
2022-10-24T01:33:15.974Z,7.90
2022-10-24T01:35:49.073Z,8.93
2022-10-24T01:38:20.136Z,8.80
2022-10-24T01:40:55.761Z,8.40
2022-10-24T01:43:28.139Z,7.87
2022-10-24T01:46:02.562Z,8.33
2022-10-24T01:48:34.555Z,8.90
2022-10-24T01:51:04.179Z,8.90
2022-10-24T01:53:32.924Z,8.70
2022-10-24T01:56:00.756Z,8.70
2022-10-24T01:58:28.592Z,9.93
2022-10-24T02:01:02.503Z,8.57
2022-10-24T02:03:35.183Z,9.20
2022-10-24T02:06:08.755Z,9.37
2022-10-24T02:08:42.138Z,9.50
2022-10-24T02:11:10.953Z,10.03
2022-10-24T02:13:46.225Z,9.37
2022-10-24T02:16:18.788Z,8.13
2022-10-24T02:18:47.902Z,8.70
2022-10-24T02:21:24.811Z,8.93
2022-10-24T02:23:56.150Z,9.13
2022-10-24T02:26:33.425Z,8.97
2022-10-24T02:29:05.796Z,7.47
2022-10-24T02:31:40.487Z,8.23
2022-10-24T02:36:41.036Z,6.67
2022-10-24T02:39:11.096Z,7.20
2022-10-24T02:41:41.969Z,7.20
2022-10-24T02:44:12.685Z,7.77
2022-10-24T02:46:43.630Z,7.20
2022-10-24T02:49:11.639Z,6.90
2022-10-24T02:51:42.299Z,6.63
2022-10-24T02:54:11.058Z,7.00
2022-10-24T02:56:43.228Z,6.80
2022-10-24T02:59:10.953Z,6.80
2022-10-24T03:01:39.147Z,7.00
2022-10-24T03:04:08.320Z,6.33
2022-10-24T03:06:36.050Z,7.70
2022-10-24T03:09:03.856Z,6.80
2022-10-24T03:11:31.642Z,8.10
2022-10-24T03:13:59.589Z,8.47
2022-10-24T03:16:28.597Z,8.20
2022-10-24T03:18:56.545Z,7.23
2022-10-24T03:21:25.780Z,7.80
2022-10-24T03:23:53.780Z,8.57
2022-10-24T03:26:21.741Z,9.93
2022-10-24T03:28:49.660Z,9.37
2022-10-24T03:31:17.368Z,9.40
2022-10-24T03:33:45.213Z,8.40
2022-10-24T03:36:12.962Z,8.13
2022-10-24T03:38:42.050Z,8.80
2022-10-24T03:41:09.756Z,8.53
2022-10-24T03:43:37.641Z,8.87
2022-10-24T03:46:05.437Z,8.53
2022-10-24T03:48:33.261Z,8.60
2022-10-24T03:51:01.317Z,8.13
2022-10-24T03:53:29.114Z,9.07
2022-10-24T03:55:58.199Z,8.93
2022-10-24T03:58:25.942Z,8.73
2022-10-24T04:00:57.111Z,8.30
2022-10-24T04:03:25.017Z,8.93
2022-10-24T04:05:53.015Z,9.30
2022-10-24T04:08:21.092Z,9.83
2022-10-24T04:10:50.110Z,8.80
2022-10-24T04:13:19.355Z,9.60
2022-10-24T04:15:47.180Z,8.50
2022-10-24T04:18:15.325Z,9.70
2022-10-24T04:20:45.713Z,8.33
2022-10-24T04:23:13.594Z,8.47
2022-10-24T04:25:41.653Z,8.90
2022-10-24T04:28:09.587Z,7.87
2022-10-24T04:30:38.785Z,8.57
2022-10-24T04:33:06.663Z,7.60
2022-10-24T04:35:34.398Z,8.23
2022-10-24T04:38:02.284Z,8.83
2022-10-24T04:40:30.154Z,7.80
2022-10-24T04:42:57.892Z,7.70
2022-10-24T04:45:25.698Z,8.10
2022-10-24T04:47:54.986Z,7.73
2022-10-24T04:50:22.938Z,8.40
2022-10-24T04:52:50.768Z,7.73
2022-10-24T04:55:18.833Z,7.67
2022-10-24T04:57:46.911Z,8.17
2022-10-24T05:00:15.870Z,7.70
2022-10-24T05:02:43.850Z,8.10
2022-10-24T05:05:13.419Z,8.40
2022-10-24T05:07:41.394Z,7.53
2022-10-24T05:10:10.048Z,8.13
2022-10-24T05:12:37.851Z,7.80
2022-10-24T05:15:06.759Z,7.93
2022-10-24T05:17:35.029Z,8.63
2022-10-24T05:20:03.226Z,9.70
2022-10-24T05:22:32.390Z,7.80
2022-10-24T05:25:00.807Z,7.10
2022-10-24T05:27:28.555Z,7.90
2022-10-24T05:29:56.507Z,8.27
2022-10-24T05:32:24.998Z,7.97
2022-10-24T05:34:53.196Z,8.03
2022-10-24T05:37:21.147Z,7.53
2022-10-24T05:39:50.753Z,7.57
2022-10-24T05:42:18.802Z,7.57
2022-10-24T05:44:46.600Z,8.67
2022-10-24T05:47:14.492Z,8.13
2022-10-24T05:49:42.386Z,8.97
2022-10-24T05:52:10.271Z,8.17
2022-10-24T05:54:48.800Z,8.40
2022-10-24T05:57:27.254Z,7.73
2022-10-24T05:59:55.077Z,7.77
2022-10-24T06:02:22.983Z,7.63
2022-10-24T06:04:51.203Z,8.17
2022-10-24T06:07:19.647Z,7.53
2022-10-24T06:09:47.607Z,7.90
2022-10-24T06:12:15.630Z,7.90
2022-10-24T06:14:45.663Z,8.60
2022-10-24T06:17:15.543Z,9.80
2022-10-24T06:19:43.866Z,9.57
2022-10-24T06:22:12.095Z,10.43
2022-10-24T06:24:40.146Z,10.33
2022-10-24T06:27:08.093Z,9.40
2022-10-24T06:29:36.696Z,9.67
2022-10-24T06:32:05.999Z,9.83
2022-10-24T06:34:34.069Z,9.47
2022-10-24T06:37:02.041Z,8.77
2022-10-24T06:39:29.958Z,8.70
2022-10-24T06:41:57.833Z,9.00
2022-10-24T06:44:25.842Z,7.90
2022-10-24T06:46:53.690Z,8.27
2022-10-24T06:49:22.995Z,8.57
2022-10-24T06:51:50.797Z,8.27
2022-10-24T06:54:18.649Z,8.00
2022-10-24T06:56:46.523Z,8.03
2022-10-24T06:59:18.598Z,8.43
2022-10-24T07:01:47.193Z,18.37
2022-10-24T07:04:15.077Z,9.10
2022-10-24T07:06:46.522Z,7.87
2022-10-24T07:09:15.600Z,8.20
2022-10-24T07:11:43.746Z,7.87
2022-10-24T07:14:11.899Z,7.43
2022-10-24T07:16:40.245Z,7.97
2022-10-24T07:19:08.166Z,8.17
2022-10-24T07:21:36.237Z,8.27
2022-10-24T07:24:06.462Z,7.37
2022-10-24T07:26:35.529Z,8.27
2022-10-24T07:29:04.336Z,7.27
2022-10-24T07:31:37.153Z,7.97
2022-10-24T07:34:07.267Z,7.47
2022-10-24T07:36:36.958Z,7.80
2022-10-24T07:39:09.188Z,8.10
2022-10-24T07:41:40.546Z,8.20
2022-10-24T07:44:09.383Z,8.67
2022-10-24T07:46:37.256Z,7.63
2022-10-24T07:49:05.384Z,8.00
2022-10-24T07:51:33.098Z,7.83
2022-10-24T07:54:01.376Z,7.70
2022-10-24T07:56:30.515Z,7.07
2022-10-24T07:59:05.796Z,8.37
2022-10-24T08:01:37.541Z,7.50
2022-10-24T08:04:05.652Z,7.40
2022-10-24T08:06:33.949Z,6.63
2022-10-24T08:09:02.070Z,7.60
2022-10-24T08:11:32.622Z,6.80
2022-10-24T08:14:02.340Z,6.83
2022-10-24T08:16:30.437Z,6.30
2022-10-24T08:18:59.415Z,6.80
2022-10-24T08:21:27.766Z,6.97
2022-10-24T08:23:55.830Z,6.87
2022-10-24T08:26:26.436Z,7.10
2022-10-24T08:28:57.648Z,6.40
2022-10-24T08:31:26.712Z,6.80
2022-10-24T08:33:56.153Z,6.77
2022-10-24T08:36:25.785Z,6.23
2022-10-24T08:38:54.290Z,6.90
2022-10-24T08:41:28.688Z,6.60
2022-10-24T08:44:00.108Z,5.10
2022-10-24T08:46:44.190Z,5.47
2022-10-24T08:49:21.013Z,4.93
2022-10-24T08:51:54.446Z,5.30
2022-10-24T08:54:25.899Z,5.23
2022-10-24T08:56:57.878Z,5.77
2022-10-24T08:59:30.507Z,5.50
2022-10-24T09:02:04.150Z,5.77
2022-10-24T09:04:40.653Z,5.33
2022-10-24T09:07:15.370Z,4.50
2022-10-24T09:09:47.836Z,3.90
2022-10-24T09:12:17.615Z,4.30
2022-10-24T09:14:56.082Z,3.67
2022-10-24T09:17:25.424Z,4.23
2022-10-24T09:19:56.067Z,3.73
2022-10-24T09:22:24.418Z,3.27
2022-10-24T09:24:56.441Z,3.40
2022-10-24T09:27:29.496Z,3.57
2022-10-24T09:30:00.573Z,3.17
2022-10-24T09:32:32.446Z,3.20
2022-10-24T09:35:01.721Z,3.20
2022-10-24T09:37:39.239Z,3.17
2022-10-24T09:40:18.765Z,3.57
2022-10-24T09:42:52.327Z,3.10
2022-10-24T09:45:35.993Z,3.63
2022-10-24T09:48:07.511Z,3.37
2022-10-24T09:50:36.732Z,3.10
2022-10-24T09:53:06.352Z,2.70
2022-10-24T09:55:46.816Z,2.70
2022-10-24T09:58:20.987Z,2.90
2022-10-24T10:00:59.416Z,2.70
2022-10-24T10:03:28.420Z,2.90
2022-10-24T10:05:58.258Z,2.40
2022-10-24T10:08:29.683Z,2.73
2022-10-24T10:11:04.944Z,3.00
2022-10-24T10:13:38.431Z,3.07
2022-10-24T10:16:09.961Z,2.80
2022-10-24T10:18:46.856Z,2.20
2022-10-24T10:21:16.866Z,2.53
2022-10-24T10:23:46.686Z,2.60
2022-10-24T10:26:27.337Z,2.10
2022-10-24T10:29:01.780Z,2.10
2022-10-24T10:31:40.695Z,2.77
2022-10-24T10:34:22.876Z,2.60
2022-10-24T10:37:15.492Z,2.60
2022-10-24T10:40:15.015Z,2.03
2022-10-24T10:42:53.308Z,2.30
2022-10-24T10:45:35.277Z,2.13
2022-10-24T10:48:16.040Z,2.00
2022-10-24T10:50:52.306Z,2.23
2022-10-24T10:53:33.636Z,2.03
2022-10-24T10:56:13.976Z,2.00
2022-10-24T10:58:50.252Z,1.67
2022-10-24T11:01:25.750Z,1.83
2022-10-24T11:04:03.510Z,2.07
2022-10-24T11:06:39.124Z,2.00
2022-10-24T11:09:29.051Z,2.73
2022-10-24T11:12:15.578Z,1.80
2022-10-24T11:14:46.719Z,2.10
2022-10-24T11:17:20.098Z,2.07
2022-10-24T11:20:01.272Z,2.57
2022-10-24T11:22:33.492Z,2.60
2022-10-24T11:25:07.031Z,1.83
2022-10-24T11:27:42.925Z,1.87
2022-10-24T11:30:16.507Z,2.30
2022-10-24T11:32:51.047Z,2.10
2022-10-24T11:35:28.816Z,2.03
2022-10-24T11:38:03.697Z,2.00
2022-10-24T11:40:32.125Z,1.80
2022-10-24T11:43:11.953Z,2.03
2022-10-24T11:45:46.755Z,1.90
2022-10-24T11:48:20.428Z,1.40
2022-10-24T11:50:53.901Z,1.60
2022-10-24T11:53:48.598Z,1.70
2022-10-24T11:56:27.110Z,2.00
2022-10-24T11:58:59.108Z,1.80
2022-10-24T12:01:47.580Z,1.60
2022-10-24T12:04:58.286Z,1.73
2022-10-24T12:08:01.886Z,1.70
2022-10-24T12:10:58.896Z,1.77
2022-10-24T12:13:47.992Z,2.17
2022-10-24T12:16:26.278Z,1.10
2022-10-24T12:19:00.034Z,1.60
2022-10-24T12:21:36.195Z,1.70
2022-10-24T12:24:06.678Z,1.67
2022-10-24T12:26:36.375Z,1.27
2022-10-24T12:29:06.730Z,1.37
2022-10-24T12:31:37.395Z,1.53
2022-10-24T12:34:46.111Z,1.40
2022-10-24T12:37:37.008Z,1.30
2022-10-24T12:40:42.567Z,1.30
2022-10-24T12:43:29.819Z,1.50
2022-10-24T12:46:00.146Z,1.30
2022-10-24T12:48:36.932Z,1.20
2022-10-24T12:51:27.486Z,1.30
2022-10-24T12:54:05.400Z,1.13
2022-10-24T12:56:34.889Z,1.40
2022-10-24T12:59:18.348Z,1.00
2022-10-24T13:01:47.920Z,0.83
2022-10-24T13:04:47.490Z,0.87
2022-10-24T13:07:29.458Z,0.97
2022-10-24T13:10:10.067Z,1.13
2022-10-24T13:12:56.738Z,0.70
2022-10-24T13:15:41.571Z,1.67
2022-10-24T13:18:22.271Z,0.97
2022-10-24T13:21:08.663Z,1.20
2022-10-24T13:23:39.670Z,1.00
2022-10-24T13:26:09.912Z,1.40
2022-10-24T13:28:40.609Z,1.07
2022-10-24T13:31:54.299Z,1.13
2022-10-24T13:34:26.059Z,0.80
2022-10-24T13:37:13.709Z,0.83
2022-10-24T13:42:43.875Z,0.90
2022-10-24T13:45:27.674Z,1.00
2022-10-24T13:48:01.977Z,1.17
2022-10-24T13:50:31.891Z,1.10
2022-10-24T13:53:02.994Z,1.30
2022-10-24T13:55:36.320Z,1.00
2022-10-24T13:58:11.810Z,1.00
2022-10-24T14:00:43.919Z,1.20
2022-10-24T14:03:17.669Z,1.03
2022-10-24T14:05:48.954Z,1.00
2022-10-24T14:08:24.960Z,1.20
2022-10-24T14:10:54.404Z,1.13
2022-10-24T14:13:29.099Z,0.90
2022-10-24T14:16:02.746Z,0.90
2022-10-24T14:18:32.999Z,0.70
2022-10-24T14:21:05.243Z,1.20
2022-10-24T14:23:39.702Z,1.30
2022-10-24T14:26:15.493Z,0.90
2022-10-24T14:28:50.577Z,1.60
2022-10-24T14:31:23.530Z,0.90
2022-10-24T14:33:57.507Z,0.80
2022-10-24T14:36:30.691Z,0.90
2022-10-24T14:39:01.061Z,0.87
2022-10-24T14:41:31.315Z,1.07
2022-10-24T14:44:00.499Z,1.00
2022-10-24T14:49:36.565Z,0.90
2022-10-24T14:52:12.008Z,0.87
2022-10-24T16:59:30.380Z,0.77
2022-10-24T17:01:59.225Z,1.20
2022-10-24T17:04:32.825Z,1.10
2022-10-24T17:07:04.605Z,1.00
2022-10-24T17:09:34.112Z,1.30
2022-10-24T17:12:02.999Z,1.03
2022-10-24T17:14:33.765Z,1.00
2022-10-24T17:17:01.773Z,1.10
2022-10-24T17:19:30.725Z,1.20
2022-10-24T17:21:59.469Z,1.17
2022-10-24T17:24:28.371Z,1.63
2022-10-24T17:26:56.775Z,1.00
2022-10-24T17:29:28.033Z,1.13
2022-10-24T17:32:01.390Z,1.40
2022-10-24T17:34:29.989Z,1.30
2022-10-24T17:37:03.783Z,1.20
2022-10-24T17:39:35.950Z,1.30
2022-10-24T17:42:16.495Z,1.00
2022-10-24T17:44:47.845Z,1.50
2022-10-24T17:47:17.654Z,1.03
2022-10-24T17:49:46.069Z,1.40
2022-10-24T17:52:16.876Z,1.20
2022-10-24T17:54:46.008Z,1.20
2022-10-24T17:57:14.348Z,1.20
2022-10-24T17:59:42.682Z,1.07
2022-10-24T18:02:15.219Z,1.37
2022-10-24T18:04:45.638Z,1.73
2022-10-24T18:07:14.045Z,1.30
2022-10-24T18:09:45.066Z,1.57
2022-10-24T18:12:13.189Z,1.27
2022-10-24T18:14:41.555Z,1.00
2022-10-24T18:17:10.075Z,0.80
2022-10-24T18:19:38.589Z,1.20
2022-10-24T18:22:09.615Z,1.03
2022-10-24T18:24:38.126Z,1.10
2022-10-24T18:27:06.348Z,1.40
2022-10-24T18:29:36.219Z,1.20
2022-10-24T18:32:04.546Z,1.20
2022-10-24T18:34:32.842Z,1.40
2022-10-24T18:37:01.193Z,1.10
2022-10-24T18:39:30.973Z,1.47
2022-10-24T18:44:51.058Z,1.53
2022-10-24T18:47:24.777Z,1.30
2022-10-24T18:49:56.285Z,0.80
2022-10-24T18:52:41.540Z,1.17
2022-10-24T18:55:19.100Z,0.93
2022-10-24T18:57:48.957Z,1.30
2022-10-24T19:00:20.475Z,1.10
2022-10-24T19:02:59.594Z,1.00
2022-10-24T19:05:43.346Z,1.23
2022-10-24T19:08:15.901Z,1.50
2022-10-24T19:10:48.519Z,1.10
2022-10-24T19:13:22.730Z,1.30
2022-10-24T19:15:57.091Z,1.30
2022-10-24T19:18:27.373Z,1.30
2022-10-24T19:20:59.460Z,1.20
2022-10-24T19:23:31.248Z,1.07
2022-10-24T19:26:15.924Z,1.20
2022-10-24T19:28:44.842Z,1.00
2022-10-24T19:31:15.358Z,1.20
2022-10-24T19:33:43.587Z,1.20
2022-10-24T19:36:14.397Z,2.60
2022-10-24T19:38:45.690Z,1.77
2022-10-24T19:41:15.169Z,1.90
2022-10-24T19:43:43.216Z,1.70
2022-10-24T19:46:19.763Z,1.30
2022-10-24T19:48:49.643Z,1.00
2022-10-24T19:51:19.261Z,1.30
2022-10-24T19:53:48.012Z,1.00
2022-10-24T19:56:21.378Z,1.10
2022-10-24T19:58:52.722Z,1.20
2022-10-24T20:01:23.802Z,1.10
2022-10-24T20:03:52.624Z,1.50
2022-10-24T20:06:21.222Z,0.90
2022-10-24T20:08:50.534Z,1.50
2022-10-24T20:11:21.717Z,1.13
2022-10-24T20:13:51.686Z,1.47
2022-10-24T20:16:20.655Z,2.00
2022-10-24T20:18:48.754Z,1.60
2022-10-24T20:21:19.226Z,1.40
2022-10-24T20:23:48.471Z,2.67
2022-10-24T20:26:22.640Z,1.93
2022-10-24T20:28:52.876Z,1.63
2022-10-24T20:31:22.918Z,1.60
2022-10-24T20:33:51.550Z,1.87
2022-10-24T20:36:21.351Z,3.40
2022-10-24T20:38:51.974Z,1.63
2022-10-24T20:41:21.415Z,5.63
2022-10-24T20:43:51.431Z,1.60
2022-10-24T20:46:24.655Z,1.80
2022-10-24T20:48:58.735Z,1.70
2022-10-24T20:51:27.445Z,2.07
2022-10-24T20:53:56.628Z,1.40
2022-10-24T20:56:27.343Z,1.80
2022-10-24T20:58:56.591Z,2.20
2022-10-24T21:01:28.605Z,2.00
2022-10-24T21:03:58.786Z,2.17
2022-10-24T21:06:28.982Z,2.53
2022-10-24T21:09:08.075Z,2.30
2022-10-24T21:11:39.002Z,2.33
2022-10-24T21:14:13.115Z,2.30
2022-10-24T21:16:41.194Z,2.57
2022-10-24T21:19:09.735Z,2.50
2022-10-24T21:21:38.630Z,2.77
2022-10-24T21:24:07.365Z,2.50
2022-10-24T21:26:39.092Z,2.90
2022-10-24T21:29:14.847Z,2.77
2022-10-24T21:31:50.056Z,2.60
2022-10-24T21:34:18.490Z,2.80
2022-10-24T21:36:46.604Z,2.17
2022-10-24T21:39:15.763Z,2.50
2022-10-24T21:41:45.687Z,2.10
2022-10-24T21:44:14.366Z,1.70
2022-10-24T21:46:42.408Z,2.10
2022-10-24T21:49:11.305Z,1.83
2022-10-24T21:51:41.302Z,1.47
2022-10-24T21:54:16.738Z,1.70
2022-10-24T21:56:46.361Z,1.93
2022-10-24T21:59:16.557Z,1.60
2022-10-24T22:01:46.633Z,1.50
2022-10-24T22:04:15.320Z,1.40
2022-10-24T22:06:44.544Z,1.53
2022-10-24T22:09:15.546Z,1.67
2022-10-24T22:11:44.064Z,1.50
2022-10-24T22:14:15.060Z,1.60
2022-10-24T22:16:43.826Z,1.90
2022-10-24T22:19:15.926Z,1.30
2022-10-24T22:21:47.262Z,1.40
2022-10-24T22:24:21.633Z,1.20
2022-10-24T22:26:51.248Z,1.10
2022-10-24T22:29:24.289Z,1.30
2022-10-24T22:31:54.101Z,1.70
2022-10-24T22:34:26.181Z,1.40
2022-10-24T22:37:06.941Z,1.47
2022-10-24T22:39:40.091Z,1.50
2022-10-24T22:42:13.599Z,1.47
2022-10-24T22:44:47.068Z,1.10
2022-10-24T22:47:36.623Z,1.53
2022-10-24T22:50:15.976Z,1.33
2022-10-24T22:52:45.419Z,1.23
2022-10-24T22:55:19.917Z,1.20
2022-10-24T22:57:49.191Z,1.30
2022-10-24T23:00:20.949Z,1.20
2022-10-24T23:02:53.211Z,1.37
2022-10-24T23:05:31.579Z,1.27
2022-10-24T23:08:05.400Z,1.30
2022-10-24T23:10:36.654Z,1.13
2022-10-24T23:13:06.641Z,1.20
2022-10-24T23:15:37.911Z,1.10
2022-10-24T23:18:10.803Z,0.97
2022-10-24T23:20:44.043Z,1.10
2022-10-24T23:23:28.339Z,1.00
2022-10-24T23:26:04.934Z,1.03
2022-10-24T23:28:43.042Z,0.80
2022-10-24T23:31:14.414Z,1.10
2022-10-24T23:33:46.664Z,0.97
2022-10-24T23:36:24.037Z,0.97
2022-10-24T23:38:57.322Z,1.20
2022-10-24T23:41:26.570Z,1.10
2022-10-24T23:43:55.807Z,1.13
2022-10-24T23:46:32.994Z,1.30
2022-10-24T23:49:18.394Z,1.07
2022-10-24T23:51:56.171Z,1.13
2022-10-24T23:54:31.585Z,1.20
2022-10-24T23:57:00.096Z,1.27
2022-10-24T23:59:29.100Z,0.80
